sensor_id;sensor_type;location;lat;lon;timestamp;pressure;altitude;pressure_sealevel;temperature;humidity
61292;BME280;47165;42.664;23.368;2023-05-16T00:01:44;94729.00;;;16.45;70.50
61292;BME280;47165;42.664;23.368;2023-05-16T00:04:10;94733.44;;;16.45;70.66
61292;BME280;47165;42.664;23.368;2023-05-16T00:06:35;94723.13;;;16.42;70.73
61292;BME280;47165;42.664;23.368;2023-05-16T00:09:01;94718.13;;;16.39;70.77
61292;BME280;47165;42.664;23.368;2023-05-16T00:11:26;94718.84;;;16.41;70.99
61292;BME280;47165;42.664;23.368;2023-05-16T00:13:52;94721.31;;;16.42;70.99
61292;BME280;47165;42.664;23.368;2023-05-16T00:16:18;94713.00;;;16.37;70.89
61292;BME280;47165;42.664;23.368;2023-05-16T00:18:46;94711.47;;;16.35;71.20
61292;BME280;47165;42.664;23.368;2023-05-16T00:21:11;94710.47;;;16.36;71.07
61292;BME280;47165;42.664;23.368;2023-05-16T00:23:37;94712.34;;;16.24;71.58
61292;BME280;47165;42.664;23.368;2023-05-16T00:26:03;94703.50;;;16.04;72.20
61292;BME280;47165;42.664;23.368;2023-05-16T00:28:28;94708.69;;;15.94;73.04
61292;BME280;47165;42.664;23.368;2023-05-16T00:30:54;94713.88;;;15.84;73.54
61292;BME280;47165;42.664;23.368;2023-05-16T00:33:19;94708.38;;;15.87;73.28
61292;BME280;47165;42.664;23.368;2023-05-16T00:35:45;94704.97;;;15.97;72.93
61292;BME280;47165;42.664;23.368;2023-05-16T00:38:10;94709.81;;;16.01;72.54
61292;BME280;47165;42.664;23.368;2023-05-16T00:40:36;94704.91;;;16.08;72.13
61292;BME280;47165;42.664;23.368;2023-05-16T00:43:02;94704.63;;;16.11;72.08
61292;BME280;47165;42.664;23.368;2023-05-16T00:45:27;94694.38;;;16.08;72.52
61292;BME280;47165;42.664;23.368;2023-05-16T00:47:53;94686.19;;;16.11;72.58
61292;BME280;47165;42.664;23.368;2023-05-16T00:50:19;94679.78;;;16.04;72.77
61292;BME280;47165;42.664;23.368;2023-05-16T00:52:44;94675.53;;;16.13;72.54
61292;BME280;47165;42.664;23.368;2023-05-16T00:55:10;94670.53;;;16.09;72.48
61292;BME280;47165;42.664;23.368;2023-05-16T00:57:36;94667.06;;;16.09;72.46
61292;BME280;47165;42.664;23.368;2023-05-16T01:00:04;94670.88;;;16.16;72.34
61292;BME280;47165;42.664;23.368;2023-05-16T01:02:31;94671.56;;;16.18;72.20
61292;BME280;47165;42.664;23.368;2023-05-16T01:04:59;94662.69;;;16.19;71.96
61292;BME280;47165;42.664;23.368;2023-05-16T01:07:24;94664.22;;;16.22;71.97
61292;BME280;47165;42.664;23.368;2023-05-16T01:09:50;94663.38;;;16.21;72.05
61292;BME280;47165;42.664;23.368;2023-05-16T01:15:11;94673.16;;;16.31;71.65
61292;BME280;47165;42.664;23.368;2023-05-16T01:17:57;94667.63;;;16.34;71.38
61292;BME280;47165;42.664;23.368;2023-05-16T01:20:29;94657.06;;;16.34;71.22
61292;BME280;47165;42.664;23.368;2023-05-16T01:28:09;94653.88;;;16.30;71.20
61292;BME280;47165;42.664;23.368;2023-05-16T01:30:39;94653.75;;;16.32;71.06
61292;BME280;47165;42.664;23.368;2023-05-16T01:33:06;94648.88;;;16.27;71.18
61292;BME280;47165;42.664;23.368;2023-05-16T01:35:32;94637.22;;;16.29;71.36
61292;BME280;47165;42.664;23.368;2023-05-16T01:38:05;94640.69;;;16.30;71.45
61292;BME280;47165;42.664;23.368;2023-05-16T01:40:51;94628.75;;;16.26;71.68
61292;BME280;47165;42.664;23.368;2023-05-16T01:43:28;94620.47;;;16.09;72.03
61292;BME280;47165;42.664;23.368;2023-05-16T01:46:01;94616.78;;;16.12;72.10
61292;BME280;47165;42.664;23.368;2023-05-16T01:48:34;94630.66;;;16.14;72.05
61292;BME280;47165;42.664;23.368;2023-05-16T01:51:02;94629.53;;;16.17;71.94
61292;BME280;47165;42.664;23.368;2023-05-16T01:53:32;94624.53;;;16.14;71.87
61292;BME280;47165;42.664;23.368;2023-05-16T01:56:00;94622.75;;;16.14;71.95
61292;BME280;47165;42.664;23.368;2023-05-16T01:58:28;94617.59;;;16.13;71.72
61292;BME280;47165;42.664;23.368;2023-05-16T02:01:00;94616.25;;;16.18;71.49
61292;BME280;47165;42.664;23.368;2023-05-16T02:03:28;94607.88;;;16.13;71.56
61292;BME280;47165;42.664;23.368;2023-05-16T02:05:54;94610.41;;;16.15;71.59
61292;BME280;47165;42.664;23.368;2023-05-16T02:08:20;94612.91;;;16.16;71.34
61292;BME280;47165;42.664;23.368;2023-05-16T02:10:45;94618.19;;;16.16;71.33
61292;BME280;47165;42.664;23.368;2023-05-16T02:13:11;94612.75;;;16.18;71.43
61292;BME280;47165;42.664;23.368;2023-05-16T02:15:36;94626.03;;;16.06;70.98
61292;BME280;47165;42.664;23.368;2023-05-16T02:18:02;94605.53;;;16.10;70.60
61292;BME280;47165;42.664;23.368;2023-05-16T02:20:27;94611.63;;;16.11;70.89
61292;BME280;47165;42.664;23.368;2023-05-16T02:22:53;94609.50;;;16.04;71.01
61292;BME280;47165;42.664;23.368;2023-05-16T02:25:18;94603.84;;;16.09;70.68
61292;BME280;47165;42.664;23.368;2023-05-16T02:27:43;94606.94;;;16.14;70.48
61292;BME280;47165;42.664;23.368;2023-05-16T02:30:10;94609.28;;;16.17;70.33
61292;BME280;47165;42.664;23.368;2023-05-16T02:32:37;94605.00;;;16.16;70.50
61292;BME280;47165;42.664;23.368;2023-05-16T02:35:03;94606.53;;;16.19;70.37
61292;BME280;47165;42.664;23.368;2023-05-16T02:37:29;94606.53;;;16.19;70.64
61292;BME280;47165;42.664;23.368;2023-05-16T02:39:54;94612.34;;;16.13;70.38
61292;BME280;47165;42.664;23.368;2023-05-16T02:42:20;94617.47;;;16.14;70.30
61292;BME280;47165;42.664;23.368;2023-05-16T02:44:45;94606.25;;;16.12;70.31
61292;BME280;47165;42.664;23.368;2023-05-16T02:47:11;94603.72;;;16.11;70.24
61292;BME280;47165;42.664;23.368;2023-05-16T02:49:36;94604.31;;;16.14;70.41
61292;BME280;47165;42.664;23.368;2023-05-16T02:52:02;94610.53;;;16.13;70.48
61292;BME280;47165;42.664;23.368;2023-05-16T02:54:27;94605.38;;;16.12;70.51
61292;BME280;47165;42.664;23.368;2023-05-16T02:56:53;94606.94;;;16.14;70.48
61292;BME280;47165;42.664;23.368;2023-05-16T02:59:18;94603.19;;;16.17;70.82
61292;BME280;47165;42.664;23.368;2023-05-16T03:01:44;94603.31;;;16.15;70.77
61292;BME280;47165;42.664;23.368;2023-05-16T03:04:10;94595.44;;;16.15;70.53
61292;BME280;47165;42.664;23.368;2023-05-16T03:06:35;94600.88;;;16.23;70.33
61292;BME280;47165;42.664;23.368;2023-05-16T03:09:00;94604.34;;;16.24;70.48
61292;BME280;47165;42.664;23.368;2023-05-16T03:11:26;94595.72;;;16.22;70.42
61292;BME280;47165;42.664;23.368;2023-05-16T03:13:53;94603.25;;;16.26;70.29
61292;BME280;47165;42.664;23.368;2023-05-16T03:16:18;94603.78;;;16.20;70.55
61292;BME280;47165;42.664;23.368;2023-05-16T03:18:44;94603.50;;;16.23;70.48
61292;BME280;47165;42.664;23.368;2023-05-16T03:21:09;94598.19;;;16.14;70.89
61292;BME280;47165;42.664;23.368;2023-05-16T03:23:35;94598.50;;;16.20;70.82
61292;BME280;47165;42.664;23.368;2023-05-16T03:26:00;94600.44;;;16.18;71.15
61292;BME280;47165;42.664;23.368;2023-05-16T03:28:27;94598.88;;;16.16;70.63
61292;BME280;47165;42.664;23.368;2023-05-16T03:30:52;94599.47;;;16.19;70.66
61292;BME280;47165;42.664;23.368;2023-05-16T03:33:17;94594.91;;;16.21;70.48
61292;BME280;47165;42.664;23.368;2023-05-16T03:35:43;94597.28;;;16.24;70.40
61292;BME280;47165;42.664;23.368;2023-05-16T03:38:09;94599.41;;;16.31;69.98
61292;BME280;47165;42.664;23.368;2023-05-16T03:40:34;94598.53;;;16.30;70.19
61292;BME280;47165;42.664;23.368;2023-05-16T03:43:00;94593.25;;;16.30;70.24
61292;BME280;47165;42.664;23.368;2023-05-16T03:45:25;94592.19;;;16.33;70.23
61292;BME280;47165;42.664;23.368;2023-05-16T03:47:51;94596.47;;;16.34;70.48
61292;BME280;47165;42.664;23.368;2023-05-16T03:50:16;94596.22;;;16.37;70.15
61292;BME280;47165;42.664;23.368;2023-05-16T03:52:42;94602.31;;;16.37;70.35
61292;BME280;47165;42.664;23.368;2023-05-16T03:55:08;94596.47;;;16.34;70.22
61292;BME280;47165;42.664;23.368;2023-05-16T03:57:36;94597.47;;;16.33;70.71
61292;BME280;47165;42.664;23.368;2023-05-16T04:00:02;94595.72;;;16.22;71.05
61292;BME280;47165;42.664;23.368;2023-05-16T04:02:30;94598.06;;;16.15;71.30
61292;BME280;47165;42.664;23.368;2023-05-16T04:04:56;94599.47;;;16.19;70.99
61292;BME280;47165;42.664;23.368;2023-05-16T04:07:21;94592.72;;;16.26;70.92
61292;BME280;47165;42.664;23.368;2023-05-16T04:09:47;94599.91;;;16.24;70.66
61292;BME280;47165;42.664;23.368;2023-05-16T04:12:12;94599.50;;;16.29;70.86
61292;BME280;47165;42.664;23.368;2023-05-16T04:14:37;94597.00;;;16.27;70.39
61292;BME280;47165;42.664;23.368;2023-05-16T04:17:03;94614.91;;;16.34;70.19
61292;BME280;47165;42.664;23.368;2023-05-16T04:19:29;94616.59;;;16.35;70.12
61292;BME280;47165;42.664;23.368;2023-05-16T04:21:54;94612.56;;;16.31;70.76
61292;BME280;47165;42.664;23.368;2023-05-16T04:24:20;94616.44;;;16.26;70.78
61292;BME280;47165;42.664;23.368;2023-05-16T04:26:45;94610.75;;;16.31;70.66
61292;BME280;47165;42.664;23.368;2023-05-16T04:29:11;94609.78;;;16.32;70.54
61292;BME280;47165;42.664;23.368;2023-05-16T04:31:38;94600.78;;;16.35;70.55
61292;BME280;47165;42.664;23.368;2023-05-16T04:34:04;94602.97;;;16.29;70.76
61292;BME280;47165;42.664;23.368;2023-05-16T04:36:30;94598.00;;;16.36;70.80
61292;BME280;47165;42.664;23.368;2023-05-16T04:38:55;94596.22;;;16.37;70.89
61292;BME280;47165;42.664;23.368;2023-05-16T04:41:21;94602.91;;;16.41;70.64
61292;BME280;47165;42.664;23.368;2023-05-16T04:43:48;94593.31;;;16.40;70.21
61292;BME280;47165;42.664;23.368;2023-05-16T04:46:13;94592.50;;;16.39;70.43
61292;BME280;47165;42.664;23.368;2023-05-16T04:48:40;94593.31;;;16.40;70.45
61292;BME280;47165;42.664;23.368;2023-05-16T04:51:05;94605.84;;;16.47;70.13
61292;BME280;47165;42.664;23.368;2023-05-16T04:53:30;94603.19;;;16.47;70.16
61292;BME280;47165;42.664;23.368;2023-05-16T04:55:56;94602.91;;;16.50;70.35
61292;BME280;47165;42.664;23.368;2023-05-16T04:58:21;94594.31;;;16.48;70.05
61292;BME280;47165;42.664;23.368;2023-05-16T05:00:49;94601.31;;;16.59;69.86
61292;BME280;47165;42.664;23.368;2023-05-16T05:03:15;94591.72;;;16.58;70.03
61292;BME280;47165;42.664;23.368;2023-05-16T05:05:42;94589.78;;;16.60;69.89
61292;BME280;47165;42.664;23.368;2023-05-16T05:08:07;94602.69;;;16.63;69.65
61292;BME280;47165;42.664;23.368;2023-05-16T05:10:33;94600.06;;;16.63;69.40
61292;BME280;47165;42.664;23.368;2023-05-16T05:12:59;94607.66;;;16.57;70.05
61292;BME280;47165;42.664;23.368;2023-05-16T05:15:24;94607.28;;;16.61;69.82
61292;BME280;47165;42.664;23.368;2023-05-16T05:17:50;94607.13;;;16.63;69.22
61292;BME280;47165;42.664;23.368;2023-05-16T05:20:15;94605.75;;;16.68;69.28
61292;BME280;47165;42.664;23.368;2023-05-16T05:22:41;94610.78;;;16.72;69.15
61292;BME280;47165;42.664;23.368;2023-05-16T05:25:06;94610.06;;;16.69;69.25
61292;BME280;47165;42.664;23.368;2023-05-16T05:27:32;94607.97;;;16.63;69.59
61292;BME280;47165;42.664;23.368;2023-05-16T05:29:57;94618.81;;;16.70;69.35
61292;BME280;47165;42.664;23.368;2023-05-16T05:32:23;94599.25;;;16.73;69.10
61292;BME280;47165;42.664;23.368;2023-05-16T05:34:48;94590.38;;;16.74;69.19
61292;BME280;47165;42.664;23.368;2023-05-16T05:37:14;94585.94;;;16.74;69.66
61292;BME280;47165;42.664;23.368;2023-05-16T05:39:39;94584.09;;;16.55;70.12
61292;BME280;47165;42.664;23.368;2023-05-16T05:42:05;94584.25;;;16.63;70.45
61292;BME280;47165;42.664;23.368;2023-05-16T05:44:31;94580.84;;;16.42;69.39
61292;BME280;47165;42.664;23.368;2023-05-16T05:46:57;94593.41;;;16.59;69.66
61292;BME280;47165;42.664;23.368;2023-05-16T05:49:24;94572.94;;;16.42;70.01
61292;BME280;47165;42.664;23.368;2023-05-16T05:51:50;94584.09;;;16.55;70.14
61292;BME280;47165;42.664;23.368;2023-05-16T05:54:17;94565.38;;;16.68;69.91
61292;BME280;47165;42.664;23.368;2023-05-16T05:56:43;94575.25;;;16.76;70.01
61292;BME280;47165;42.664;23.368;2023-05-16T05:59:08;94582.88;;;16.79;70.01
61292;BME280;47165;42.664;23.368;2023-05-16T06:01:34;94582.50;;;16.83;70.01
61292;BME280;47165;42.664;23.368;2023-05-16T06:03:59;94581.97;;;16.89;69.80
61292;BME280;47165;42.664;23.368;2023-05-16T06:06:25;94582.41;;;16.95;69.67
61292;BME280;47165;42.664;23.368;2023-05-16T06:08:50;94568.22;;;16.96;69.47
61292;BME280;47165;42.664;23.368;2023-05-16T06:11:16;94573.75;;;16.83;69.87
61292;BME280;47165;42.664;23.368;2023-05-16T06:13:41;94585.88;;;16.95;69.91
61292;BME280;47165;42.664;23.368;2023-05-16T06:16:06;94581.28;;;16.97;69.82
61292;BME280;47165;42.664;23.368;2023-05-16T06:18:32;94577.00;;;16.96;69.62
61292;BME280;47165;42.664;23.368;2023-05-16T06:20:57;94566.59;;;17.04;68.75
61292;BME280;47165;42.664;23.368;2023-05-16T06:23:23;94576.84;;;17.07;68.35
61292;BME280;47165;42.664;23.368;2023-05-16T06:25:49;94578.25;;;17.12;67.95
61292;BME280;47165;42.664;23.368;2023-05-16T06:28:15;94584.34;;;17.12;67.25
61292;BME280;47165;42.664;23.368;2023-05-16T06:30:40;94579.09;;;17.02;67.34
61292;BME280;47165;42.664;23.368;2023-05-16T06:33:05;94581.03;;;17.00;67.79
61292;BME280;47165;42.664;23.368;2023-05-16T06:35:31;94580.75;;;17.03;67.65
61292;BME280;47165;42.664;23.368;2023-05-16T06:37:56;94571.97;;;16.93;67.86
61292;BME280;47165;42.664;23.368;2023-05-16T06:40:22;94572.13;;;17.01;67.31
61292;BME280;47165;42.664;23.368;2023-05-16T06:42:47;94572.28;;;17.09;67.27
61292;BME280;47165;42.664;23.368;2023-05-16T06:45:12;94586.03;;;17.13;67.70
61292;BME280;47165;42.664;23.368;2023-05-16T06:47:38;94570.47;;;17.20;67.65
61292;BME280;47165;42.664;23.368;2023-05-16T06:50:04;94559.66;;;17.13;68.61
61292;BME280;47165;42.664;23.368;2023-05-16T06:52:29;94557.16;;;17.21;68.33
61292;BME280;47165;42.664;23.368;2023-05-16T06:54:55;94555.63;;;17.28;67.85
61292;BME280;47165;42.664;23.368;2023-05-16T06:57:20;94545.63;;;17.32;67.15
61292;BME280;47165;42.664;23.368;2023-05-16T06:59:46;94551.59;;;17.24;68.11
61292;BME280;47165;42.664;23.368;2023-05-16T07:02:11;94551.59;;;17.34;67.08
61292;BME280;47165;42.664;23.368;2023-05-16T07:04:36;94561.31;;;17.34;67.96
61292;BME280;47165;42.664;23.368;2023-05-16T07:07:03;94560.75;;;17.30;66.92
61292;BME280;47165;42.664;23.368;2023-05-16T07:09:29;94547.44;;;17.32;66.99
61292;BME280;47165;42.664;23.368;2023-05-16T07:11:54;94549.91;;;17.14;67.92
61292;BME280;47165;42.664;23.368;2023-05-16T07:14:20;94548.53;;;17.09;66.50
61292;BME280;47165;42.664;23.368;2023-05-16T07:16:45;94540.19;;;17.24;65.82
61292;BME280;47165;42.664;23.368;2023-05-16T07:19:11;94531.31;;;17.35;65.21
61292;BME280;47165;42.664;23.368;2023-05-16T07:21:36;94527.69;;;17.45;65.71
61292;BME280;47165;42.664;23.368;2023-05-16T07:24:02;94517.72;;;17.39;66.28
61292;BME280;47165;42.664;23.368;2023-05-16T07:26:27;94505.59;;;17.37;66.67
61292;BME280;47165;42.664;23.368;2023-05-16T07:28:52;94517.97;;;17.26;66.16
61292;BME280;47165;42.664;23.368;2023-05-16T07:31:18;94519.09;;;17.43;65.09
61292;BME280;47165;42.664;23.368;2023-05-16T07:33:44;94502.13;;;17.56;65.11
61292;BME280;47165;42.664;23.368;2023-05-16T07:36:13;94507.13;;;17.49;65.14
61292;BME280;47165;42.664;23.368;2023-05-16T07:38:38;94513.38;;;17.58;64.88
61292;BME280;47165;42.664;23.368;2023-05-16T07:41:04;94519.03;;;17.63;64.79
61292;BME280;47165;42.664;23.368;2023-05-16T07:43:30;94522.13;;;17.48;64.12
61292;BME280;47165;42.664;23.368;2023-05-16T07:45:56;94539.66;;;17.49;63.91
61292;BME280;47165;42.664;23.368;2023-05-16T07:48:21;94542.09;;;17.70;63.72
61292;BME280;47165;42.664;23.368;2023-05-16T07:50:47;94539.03;;;17.75;63.11
61292;BME280;47165;42.664;23.368;2023-05-16T07:53:12;94523.59;;;17.90;63.22
61292;BME280;47165;42.664;23.368;2023-05-16T07:55:38;94514.31;;;17.66;62.92
61292;BME280;47165;42.664;23.368;2023-05-16T07:58:03;94524.56;;;17.79;62.87
61292;BME280;47165;42.664;23.368;2023-05-16T08:00:29;94528.78;;;17.72;63.42
61292;BME280;47165;42.664;23.368;2023-05-16T08:02:56;94535.25;;;17.97;63.01
61292;BME280;47165;42.664;23.368;2023-05-16T08:05:21;94538.03;;;17.96;62.71
61292;BME280;47165;42.664;23.368;2023-05-16T08:07:47;94515.09;;;17.96;63.12
61292;BME280;47165;42.664;23.368;2023-05-16T08:10:12;94514.81;;;18.27;63.18
61292;BME280;47165;42.664;23.368;2023-05-16T08:12:38;94505.03;;;18.37;62.83
61292;BME280;47165;42.664;23.368;2023-05-16T08:15:04;94499.69;;;18.47;62.39
61292;BME280;47165;42.664;23.368;2023-05-16T08:17:30;94482.88;;;18.48;62.60
61292;BME280;47165;42.664;23.368;2023-05-16T08:19:55;94475.78;;;18.48;62.21
61292;BME280;47165;42.664;23.368;2023-05-16T08:22:20;94483.97;;;18.45;61.48
61292;BME280;47165;42.664;23.368;2023-05-16T08:24:46;94488.44;;;18.45;60.47
61292;BME280;47165;42.664;23.368;2023-05-16T08:27:11;94483.56;;;18.68;61.53
61292;BME280;47165;42.664;23.368;2023-05-16T08:29:37;94493.84;;;18.81;60.81
61292;BME280;47165;42.664;23.368;2023-05-16T08:32:02;94502.53;;;18.91;60.17
61292;BME280;47165;42.664;23.368;2023-05-16T08:34:30;94498.97;;;18.55;60.53
61292;BME280;47165;42.664;23.368;2023-05-16T08:36:56;94484.00;;;18.91;59.21
61292;BME280;47165;42.664;23.368;2023-05-16T08:39:21;94489.53;;;18.70;60.01
61292;BME280;47165;42.664;23.368;2023-05-16T08:41:47;94491.03;;;19.00;59.33
61292;BME280;47165;42.664;23.368;2023-05-16T08:44:12;94497.28;;;19.17;58.90
61292;BME280;47165;42.664;23.368;2023-05-16T08:46:50;94490.47;;;19.33;58.50
61292;BME280;47165;42.664;23.368;2023-05-16T08:49:17;94486.88;;;19.16;57.96
61292;BME280;47165;42.664;23.368;2023-05-16T08:51:45;94491.38;;;19.41;58.66
61292;BME280;47165;42.664;23.368;2023-05-16T08:54:13;94481.41;;;19.61;58.58
61292;BME280;47165;42.664;23.368;2023-05-16T08:56:40;94490.03;;;19.81;58.38
61292;BME280;47165;42.664;23.368;2023-05-16T08:59:06;94495.72;;;19.95;59.13
61292;BME280;47165;42.664;23.368;2023-05-16T09:01:32;94493.19;;;20.19;57.40
61292;BME280;47165;42.664;23.368;2023-05-16T09:03:58;94492.59;;;20.34;58.15
61292;BME280;47165;42.664;23.368;2023-05-16T09:06:24;94482.09;;;20.24;57.04
61292;BME280;47165;42.664;23.368;2023-05-16T09:08:51;94491.22;;;20.21;56.93
61292;BME280;47165;42.664;23.368;2023-05-16T09:11:18;94482.31;;;20.30;57.19
61292;BME280;47165;42.664;23.368;2023-05-16T09:13:43;94488.59;;;20.29;56.79
61292;BME280;47165;42.664;23.368;2023-05-16T09:18:39;94477.53;;;20.42;56.46
61292;BME280;47165;42.664;23.368;2023-05-16T09:21:05;94488.38;;;20.57;57.59
61292;BME280;47165;42.664;23.368;2023-05-16T09:23:32;94488.63;;;20.72;56.20
61292;BME280;47165;42.664;23.368;2023-05-16T09:25:58;94488.63;;;20.80;56.90
61292;BME280;47165;42.664;23.368;2023-05-16T09:28:26;94487.47;;;20.83;56.25
61292;BME280;47165;42.664;23.368;2023-05-16T09:30:52;94487.31;;;20.76;54.91
61292;BME280;47165;42.664;23.368;2023-05-16T09:33:22;94477.78;;;20.57;54.11
61292;BME280;47165;42.664;23.368;2023-05-16T09:35:58;94487.63;;;20.30;55.78
61292;BME280;47165;42.664;23.368;2023-05-16T09:38:25;94481.72;;;20.45;55.21
61292;BME280;47165;42.664;23.368;2023-05-16T09:40:52;94468.75;;;20.42;55.59
61292;BME280;47165;42.664;23.368;2023-05-16T09:43:22;94483.38;;;20.46;55.41
61292;BME280;47165;42.664;23.368;2023-05-16T09:45:48;94488.34;;;20.41;55.72
61292;BME280;47165;42.664;23.368;2023-05-16T09:48:14;94487.63;;;20.30;54.41
61292;BME280;47165;42.664;23.368;2023-05-16T09:50:40;94464.47;;;20.41;54.69
61292;BME280;47165;42.664;23.368;2023-05-16T09:53:12;94478.03;;;20.38;54.99
61292;BME280;47165;42.664;23.368;2023-05-16T09:55:37;94468.06;;;20.32;54.10
61292;BME280;47165;42.664;23.368;2023-05-16T09:58:03;94483.34;;;20.38;53.95
61292;BME280;47165;42.664;23.368;2023-05-16T10:00:30;94464.41;;;20.24;54.45
61292;BME280;47165;42.664;23.368;2023-05-16T10:02:58;94465.13;;;20.43;54.70
61292;BME280;47165;42.664;23.368;2023-05-16T10:05:25;94473.56;;;20.46;54.51
61292;BME280;47165;42.664;23.368;2023-05-16T10:07:54;94466.66;;;20.54;54.10
61292;BME280;47165;42.664;23.368;2023-05-16T10:10:20;94464.22;;;20.68;54.27
61292;BME280;47165;42.664;23.368;2023-05-16T10:12:46;94476.84;;;20.83;54.23
61292;BME280;47165;42.664;23.368;2023-05-16T10:15:13;94465.94;;;20.86;53.37
61292;BME280;47165;42.664;23.368;2023-05-16T10:17:39;94470.75;;;20.99;54.45
61292;BME280;47165;42.664;23.368;2023-05-16T10:20:06;94462.28;;;21.20;53.49
61292;BME280;47165;42.664;23.368;2023-05-16T10:22:35;94465.63;;;21.30;53.08
61292;BME280;47165;42.664;23.368;2023-05-16T10:27:56;94465.13;;;21.51;52.55
61292;BME280;47165;42.664;23.368;2023-05-16T10:30:22;94459.47;;;21.70;53.74
61292;BME280;47165;42.664;23.368;2023-05-16T10:32:48;94459.63;;;21.77;51.77
61292;BME280;47165;42.664;23.368;2023-05-16T10:35:16;94475.41;;;21.79;50.90
61292;BME280;47165;42.664;23.368;2023-05-16T10:37:42;94460.63;;;21.84;51.22
61292;BME280;47165;42.664;23.368;2023-05-16T10:40:09;94450.13;;;21.91;51.13
61292;BME280;47165;42.664;23.368;2023-05-16T10:42:34;94445.78;;;21.98;51.66
61292;BME280;47165;42.664;23.368;2023-05-16T10:45:19;94438.59;;;22.15;52.33
61292;BME280;47165;42.664;23.368;2023-05-16T10:47:59;94421.28;;;22.19;52.26
61292;BME280;47165;42.664;23.368;2023-05-16T10:50:44;94414.88;;;22.45;52.88
61292;BME280;47165;42.664;23.368;2023-05-16T10:53:31;94415.47;;;22.55;52.29
61292;BME280;47165;42.664;23.368;2023-05-16T11:06:27;94411.25;;;22.92;50.51
61292;BME280;47165;42.664;23.368;2023-05-16T11:17:05;94407.13;;;22.27;49.08
61292;BME280;47165;42.664;23.368;2023-05-16T11:19:39;94421.63;;;22.24;50.06
61292;BME280;47165;42.664;23.368;2023-05-16T11:24:57;94428.94;;;22.14;51.99
61292;BME280;47165;42.664;23.368;2023-05-16T11:27:30;94427.63;;;22.10;52.90
61292;BME280;47165;42.664;23.368;2023-05-16T11:30:10;94422.31;;;22.10;53.51
61292;BME280;47165;42.664;23.368;2023-05-16T11:32:37;94411.03;;;22.08;53.39
61292;BME280;47165;42.664;23.368;2023-05-16T11:35:04;94411.22;;;21.98;52.53
61292;BME280;47165;42.664;23.368;2023-05-16T11:37:31;94424.66;;;22.05;52.96
61292;BME280;47165;42.664;23.368;2023-05-16T11:40:00;94426.44;;;22.13;52.67
61292;BME280;47165;42.664;23.368;2023-05-16T11:42:30;94430.25;;;22.18;52.82
61292;BME280;47165;42.664;23.368;2023-05-16T11:45:08;94431.06;;;22.19;51.86
61292;BME280;47165;42.664;23.368;2023-05-16T11:47:38;94430.09;;;22.28;52.11
61292;BME280;47165;42.664;23.368;2023-05-16T11:50:13;94417.28;;;22.32;52.72
61292;BME280;47165;42.664;23.368;2023-05-16T11:52:41;94424.06;;;22.34;52.48
61292;BME280;47165;42.664;23.368;2023-05-16T11:55:08;94431.53;;;22.39;51.55
61292;BME280;47165;42.664;23.368;2023-05-16T11:57:37;94424.97;;;22.49;50.29
61292;BME280;47165;42.664;23.368;2023-05-16T12:00:14;94422.09;;;22.59;49.38
61292;BME280;47165;42.664;23.368;2023-05-16T12:02:40;94413.69;;;22.79;49.65
61292;BME280;47165;42.664;23.368;2023-05-16T12:05:07;94404.53;;;23.04;50.24
61292;BME280;47165;42.664;23.368;2023-05-16T12:07:34;94409.47;;;23.30;51.65
61292;BME280;47165;42.664;23.368;2023-05-16T12:10:13;94388.09;;;23.54;50.18
61292;BME280;47165;42.664;23.368;2023-05-16T12:12:40;94381.88;;;23.61;47.45
61292;BME280;47165;42.664;23.368;2023-05-16T12:15:07;94382.91;;;23.90;49.76
61292;BME280;47165;42.664;23.368;2023-05-16T12:17:37;94387.56;;;24.33;48.53
61292;BME280;47165;42.664;23.368;2023-05-16T12:20:04;94385.91;;;24.32;45.44
61292;BME280;47165;42.664;23.368;2023-05-16T12:22:31;94380.53;;;24.46;44.03
61292;BME280;47165;42.664;23.368;2023-05-16T12:27:55;94368.88;;;25.34;44.67
61292;BME280;47165;42.664;23.368;2023-05-16T12:30:22;94365.91;;;25.78;45.85
61292;BME280;47165;42.664;23.368;2023-05-16T12:32:59;94354.13;;;26.01;44.92
61292;BME280;47165;42.664;23.368;2023-05-16T12:35:29;94372.53;;;25.82;44.73
61292;BME280;47165;42.664;23.368;2023-05-16T12:37:55;94376.53;;;25.72;44.52
61292;BME280;47165;42.664;23.368;2023-05-16T12:40:21;94366.88;;;25.42;45.41
61292;BME280;47165;42.664;23.368;2023-05-16T12:42:52;94371.69;;;25.25;46.02
61292;BME280;47165;42.664;23.368;2023-05-16T12:45:18;94380.91;;;25.01;46.23
61292;BME280;47165;42.664;23.368;2023-05-16T12:47:44;94384.72;;;24.70;46.18
61292;BME280;47165;42.664;23.368;2023-05-16T12:50:13;94390.47;;;24.53;46.40
61292;BME280;47165;42.664;23.368;2023-05-16T12:52:53;94389.84;;;24.36;47.32
61292;BME280;47165;42.664;23.368;2023-05-16T12:55:20;94387.50;;;24.11;48.13
61292;BME280;47165;42.664;23.368;2023-05-16T12:57:47;94386.94;;;24.01;48.52
61292;BME280;47165;42.664;23.368;2023-05-16T13:00:15;94400.13;;;23.87;49.05
61292;BME280;47165;42.664;23.368;2023-05-16T13:02:41;94394.47;;;23.67;50.00
61292;BME280;47165;42.664;23.368;2023-05-16T13:05:07;94394.44;;;23.53;49.75
61292;BME280;47165;42.664;23.368;2023-05-16T13:07:33;94375.09;;;23.21;50.16
61292;BME280;47165;42.664;23.368;2023-05-16T13:09:59;94399.78;;;23.15;49.92
61292;BME280;47165;42.664;23.368;2023-05-16T13:12:24;94388.75;;;22.95;50.17
61292;BME280;47165;42.664;23.368;2023-05-16T13:14:52;94392.31;;;22.87;51.29
61292;BME280;47165;42.664;23.368;2023-05-16T13:17:17;94383.44;;;22.72;51.10
61292;BME280;47165;42.664;23.368;2023-05-16T13:19:43;94377.94;;;22.50;51.34
61292;BME280;47165;42.664;23.368;2023-05-16T13:22:08;94385.91;;;22.50;52.05
61292;BME280;47165;42.664;23.368;2023-05-16T13:24:33;94382.44;;;22.41;51.20
61292;BME280;47165;42.664;23.368;2023-05-16T13:26:59;94379.13;;;22.39;51.57